Flight Track Log - Related Links

Times and Time Zones

All times are in EDT time to prevent confusion due to time zone crossing. See the N6198Q flight status page for this flight to view local times or setup timezone preferences in your user account.

Time Position Orientation Groundspeed Altitude Reporting Facility
EDT Latitude Longitude Course Direction KTS MPH feet Rate Location/Type
Mon 08:47:53 AM 26.1244 -80.7603 329° Northwest 114 131 4,500  Level Miami Center
Mon 08:48:53 AM 26.1514 -80.7706 341° North 102 117 4,500  Level Miami Center
Mon 08:49:53 AM 26.1739 -80.7828 334° Northwest 97 112 4,500  Level Miami Center
Mon 08:50:53 AM 26.1986 -80.7928 340° North 92 106 4,500  Level Miami Center
Mon 08:51:53 AM 26.2211 -80.8097 326° Northwest 92 106 4,500  Level Miami Center
Mon 08:52:53 AM 26.2439 -80.8244 330° Northwest 92 106 4,500 50 Level Miami Center
Mon 08:53:00 AM 26.0057 -80.6708 329° Northwest  Level Estimated
Mon 08:53:53 AM 26.2683 -80.8414 328° Northwest 92 106 4,600  Level Miami Center
Mon 08:54:53 AM 26.2908 -80.8561 330° Northwest 98 113 4,500 -50 Descending Miami Center
Mon 08:55:53 AM 26.3156 -80.8733 328° Northwest 98 113 4,500  Level Miami Center
Mon 08:56:53 AM 26.3381 -80.8878 330° Northwest 98 113 4,500  Level Miami Center
Mon 08:57:53 AM 26.3606 -80.9050 326° Northwest 98 113 4,500  Level Miami Center
Mon 08:58:53 AM 26.3853 -80.9219 328° Northwest 98 113 4,500  Level Miami Center
Mon 08:59:53 AM 26.4078 -80.9344 334° Northwest 98 113 4,500  Level Miami Center
Mon 09:00:53 AM 26.4303 -80.9492 330° Northwest 98 113 4,500  Level Miami Center
Mon 09:01:53 AM 26.4572 -80.9639 334° Northwest 98 113 4,500  Level Miami Center
Mon 09:02:53 AM 26.4797 -80.9764 334° Northwest 98 113 4,500  Level Miami Center
Mon 09:03:53 AM 26.5022 -80.9908 330° Northwest 98 113 4,500 50 Level Miami Center
Mon 09:04:53 AM 26.5247 -81.0081 326° Northwest 98 113 4,600  Climbing Miami Center
Mon 09:05:53 AM 26.5514 -81.0253 330° Northwest 98 113 4,500 -50 Descending Miami Center
Mon 09:06:53 AM 26.5739 -81.0400 330° Northwest 98 113 4,500  Level Miami Center
Mon 09:07:53 AM 26.5983 -81.0617 322° Northwest 98 113 4,500  Level Miami Center
Mon 09:08:53 AM 26.6189 -81.0717 336° Northwest 98 113 4,500  Level Miami Center
Mon 09:09:53 AM 26.6436 -81.0911 325° Northwest 98 113 4,500  Level Miami Center
Mon 09:10:53 AM 26.6681 -81.1083 328° Northwest 98 113 4,500  Level Miami Center
Mon 09:11:53 AM 26.6925 -81.1256 328° Northwest 98 113 4,500  Level Miami Center
Mon 09:12:53 AM 26.7153 -81.1381 334° Northwest 98 113 4,500  Level Miami Center
Mon 09:13:53 AM 26.7356 -81.1572 320° Northwest 98 113 4,500 50 Level Miami Center
Mon 09:14:53 AM 26.7622 -81.1744 330° Northwest 98 113 4,600 50 Climbing Miami Center
Mon 09:15:53 AM 26.7867 -81.1894 331° Northwest 98 113 4,600  Level Miami Center
Mon 09:16:53 AM 26.8111 -81.2089 325° Northwest 98 113 4,600 -50 Level Miami Center
Mon 09:17:53 AM 26.8317 -81.2214 332° Northwest 98 113 4,500 -50 Descending Miami Center
Mon 09:18:53 AM 26.8522 -81.2383 324° Northwest 98 113 4,500  Level Miami Center
Mon 09:19:53 AM 26.8786 -81.2603 323° Northwest 98 113 4,500  Level Miami Center
Mon 09:20:53 AM 26.9031 -81.2753 331° Northwest 98 113 4,500  Level Miami Center
Mon 09:21:53 AM 26.9258 -81.2856 338° Northwest 98 113 4,500 50 Level Miami Center
Mon 09:22:53 AM 26.9464 -81.3000 328° Northwest 98 113 4,600  Climbing Miami Center
Mon 09:23:53 AM 26.9708 -81.3150 331° Northwest 98 113 4,500 -50 Descending Miami Center
Mon 09:24:53 AM 26.9975 -81.3325 330° Northwest 98 113 4,500  Level Miami Center
Mon 09:25:53 AM 27.0200 -81.3450 334° Northwest 98 113 4,500  Level Miami Center
Mon 09:26:53 AM 27.0425 -81.3575 334° Northwest 93 107 4,500  Level Miami Center
Mon 09:27:53 AM 27.0628 -81.3769 320° Northwest 99 114 4,500  Level Miami Center
Mon 09:28:53 AM 27.0875 -81.3919 332° Northwest 99 114 4,500 50 Level Miami Center
Mon 09:29:53 AM 27.1078 -81.4089 323° Northwest 94 108 4,600 50 Climbing Miami Center
Mon 09:30:53 AM 27.1303 -81.4214 334° Northwest 94 108 4,600 -50 Level Miami Center
Mon 09:31:53 AM 27.1547 -81.4411 324° Northwest 94 108 4,500 -50 Descending Miami Center
Mon 09:32:53 AM 27.1775 -81.4536 334° Northwest 94 108 4,500  Level Miami Center
Mon 09:33:53 AM 27.2019 -81.4711 328° Northwest 94 108 4,500  Level Miami Center
Mon 09:34:53 AM 27.2242 -81.4883 325° Northwest 94 108 4,500  Level Miami Center
Mon 09:35:53 AM 27.2467 -81.5056 326° Northwest 94 108 4,500  Level Miami Center
Mon 09:36:53 AM 27.2714 -81.5181 336° Northwest 94 108 4,500 50 Level Miami Center
Mon 09:37:53 AM 27.2936 -81.5353 325° Northwest 94 108 4,600 50 Climbing Miami Center
Mon 09:38:53 AM 27.3183 -81.5528 328° Northwest 94 108 4,600 -50 Level Miami Center
Mon 09:39:53 AM 27.3406 -81.5700 325° Northwest 94 108 4,500 -50 Descending Miami Center
Mon 09:40:53 AM 27.3631 -81.5850 329° Northwest 94 108 4,500  Level Miami Center
Mon 09:41:53 AM 27.3878 -81.6000 332° Northwest 94 108 4,500  Level Miami Center
Mon 09:42:53 AM 27.4122 -81.6150 331° Northwest 94 108 4,500  Level Miami Center
Mon 09:43:53 AM 27.4367 -81.6300 331° Northwest 94 108 4,500  Level Miami Center
Mon 09:44:53 AM 27.4614 -81.6453 331° Northwest 94 108 4,500 50 Level Miami Center
Mon 09:45:53 AM 27.4836 -81.6625 325° Northwest 94 108 4,600 50 Climbing Miami Center
Mon 09:46:53 AM 27.5061 -81.6797 326° Northwest 94 108 4,600  Level Miami Center
Mon 09:47:53 AM 27.5306 -81.6947 331° Northwest 99 114 4,600 -50 Level Miami Center
Mon 09:48:53 AM 27.5531 -81.7075 333° Northwest 94 108 4,500 -50 Descending Miami Center
Mon 09:49:53 AM 27.5778 -81.7225 332° Northwest 100 115 4,500  Level Miami Center
Mon 09:50:53 AM 27.5981 -81.7375 327° Northwest 100 115 4,500  Level Miami Center
Mon 09:51:53 AM 27.6203 -81.7572 322° Northwest 94 108 4,500 50 Level Miami Center
Mon 09:52:53 AM 27.6406 -81.7744 323° Northwest 94 108 4,600 50 Climbing Miami Center
Mon 09:53:53 AM 27.6650 -81.7897 331° Northwest 94 108 4,600 -50 Level Miami Center
Mon 09:54:53 AM 27.6853 -81.8092 320° Northwest 94 108 4,500 -100 Descending Miami Center
Mon 09:55:53 AM 27.7078 -81.8242 329° Northwest 101 116 4,400 -150 Descending Miami Center
Mon 09:56:53 AM 27.7322 -81.8394 331° Northwest 95 109 4,200 -500 Descending Miami Center
Mon 09:57:53 AM 27.7631 -81.8547 336° Northwest 102 117 3,400 -400 Descending Miami Center
Mon 09:58:53 AM 27.7878 -81.8675 335° Northwest 102 117 3,400 50 Level Miami Center
Mon 09:59:53 AM 27.8103 -81.8803 333° Northwest 96 110 3,500 100 Climbing Miami Center
Mon 10:00:53 AM 27.8322 -81.9025 270° West 96 110 3,600 50 Climbing Miami Center
Mon 10:01:00 AM 27.8333 -81.9160 270° West  Level FlightAware Approximate
Mon 10:01:53 AM 27.8461 -81.9289 301° West 96 110 3,600  Level Miami Center
Mon 10:02:53 AM 27.8533 -81.9597 285° West 96 110 3,400 -550 Descending Miami Center
Mon 10:03:53 AM 27.8647 -81.9931 291° West 106 122 2,500 -900 Descending Miami Center
Mon 10:05:00 AM 27.9069 -82.0017 326° Northwest  Level Estimated

Login

Don't have an account? Register now (free) for customized features, flight alerts, and more!